Time;durP1;ratioP1;P1;durP2;ratioP2;P2;SDS_P1;SDS_P2;PMS_P1;PMS_P2;Temp;Humidity;BMP_temperature;BMP_pressure;BME280_temperature;BME280_humidity;BME280_pressure;Samples;Min_cycle;Max_cycle;Signal;HPM_P1;HPM_P2
2023/02/05 00:02:01;;;;;;;11.02;9.88;;;;;;;-1.29;100.00;103872.03;10104417;28;20039;-68
2023/02/05 00:06:58;;;;;;;10.98;10.02;;;;;;;-1.34;100.00;103868.97;10110326;28;20042;-68
2023/02/05 00:11:54;;;;;;;11.15;10.15;;;;;;;-1.40;100.00;103858.88;10108522;28;20078;-67
2023/02/05 00:16:51;;;;;;;11.52;10.52;;;;;;;-1.34;100.00;103858.25;10110752;28;20365;-68
2023/02/05 00:21:48;;;;;;;10.98;9.98;;;;;;;-1.34;100.00;103853.72;10109378;28;20049;-68
2023/02/05 00:26:45;;;;;;;11.43;10.43;;;;;;;-1.45;100.00;103826.31;10114081;28;20101;-69
2023/02/05 00:31:41;;;;;;;11.68;10.55;;;;;;;-1.45;100.00;103823.63;10113453;28;20058;-69
2023/02/05 00:36:38;;;;;;;10.73;9.65;;;;;;;-1.40;100.00;103800.66;10110027;28;20102;-66
2023/02/05 00:41:35;;;;;;;11.00;10.10;;;;;;;-1.38;100.00;103781.72;10109282;28;20042;-66
2023/02/05 00:46:31;;;;;;;11.20;10.35;;;;;;;-1.40;100.00;103772.97;10109350;28;20425;-66
2023/02/05 00:51:27;;;;;;;10.45;9.45;;;;;;;-1.39;100.00;103790.75;10106035;28;20581;-65
2023/02/05 00:56:24;;;;;;;9.75;8.95;;;;;;;-1.40;100.00;103797.13;10105083;28;20050;-66
2023/02/05 01:01:20;;;;;;;8.38;7.72;;;;;;;-1.42;100.00;103769.63;10107386;28;20047;-67
2023/02/05 01:06:17;;;;;;;8.07;7.38;;;;;;;-1.46;100.00;103757.53;10108161;28;20046;-67
2023/02/05 01:11:14;;;;;;;7.82;7.10;;;;;;;-1.46;100.00;103755.69;10107038;28;20054;-67
2023/02/05 01:16:10;;;;;;;7.20;6.47;;;;;;;-1.46;100.00;103752.16;10106329;28;20078;-67
2023/02/05 01:21:07;;;;;;;8.68;6.22;;;;;;;-1.49;100.00;103726.47;10102285;28;20674;-67
2023/02/05 01:26:03;;;;;;;7.20;6.50;;;;;;;-1.56;100.00;103707.50;10109639;28;20062;-68
2023/02/05 01:30:59;;;;;;;6.72;5.97;;;;;;;-1.58;100.00;103706.84;10094787;28;20053;-67
2023/02/05 01:35:56;;;;;;;6.82;6.22;;;;;;;-1.60;100.00;103703.50;10105505;28;20076;-67
2023/02/05 01:40:52;;;;;;;6.63;5.85;;;;;;;-1.59;100.00;103693.59;10104208;28;20055;-68
2023/02/05 01:46:15;;;;;;;7.32;6.50;;;;;;;-1.63;100.00;103693.06;10073408;28;20074;-67
2023/02/05 01:51:14;;;;;;;;;;;;;;;-1.60;100.00;103703.50;10105374;28;20126;-67
2023/02/05 01:56:22;;;;;;;8.25;5.60;;;;;;;-1.62;100.00;103693.94;10119851;28;19969;-67
2023/02/05 02:01:19;;;;;;;7.57;5.93;;;;;;;-1.59;100.00;103693.59;10107460;28;20452;-67
2023/02/05 02:06:16;;;;;;;5.95;5.40;;;;;;;-1.55;100.00;103679.69;10105773;28;20604;-68
2023/02/05 02:11:16;;;;;;;6.90;6.20;;;;;;;-1.47;100.00;103676.16;10105394;28;20508;-66
2023/02/05 02:16:13;;;;;;;7.22;5.90;;;;;;;-1.45;100.00;103686.75;10110404;28;20424;-66
2023/02/05 02:21:41;;;;;;;6.47;5.82;;;;;;;-1.36;100.00;103709.94;10108615;28;20507;-66
2023/02/05 02:27:11;;;;;;;6.10;5.38;;;;;;;-1.29;100.00;103705.56;10102721;28;21296;-66
2023/02/05 02:32:22;;;;;;;5.85;5.25;;;;;;;-1.33;100.00;103693.47;10109656;28;20117;-66
2023/02/05 02:37:44;;;;;;;5.90;5.30;;;;;;;-1.31;100.00;103686.94;10097970;28;20521;-68
2023/02/05 02:43:07;;;;;;;5.90;5.30;;;;;;;-1.18;100.00;103686.47;10101266;28;20051;-66
2023/02/05 02:48:06;;;;;;;5.97;5.47;;;;;;;-1.20;100.00;103688.47;10095365;28;20129;-68
2023/02/05 02:53:10;;;;;;;6.88;5.35;;;;;;;-1.22;100.00;103690.47;10107036;28;20148;-67
2023/02/05 02:58:31;;;;;;;7.78;5.30;;;;;;;-1.22;100.00;103685.09;10098555;28;20125;-68
2023/02/05 03:03:31;;;;;;;5.50;4.95;;;;;;;-1.23;100.00;103691.50;10109564;28;20394;-69
2023/02/05 03:08:53;;;;;;;5.97;5.00;;;;;;;-1.22;100.00;103678.91;10100158;28;20070;-66
2023/02/05 03:13:50;;;;;;;5.30;4.80;;;;;;;-1.22;100.00;103679.75;10105812;28;20137;-66
2023/02/05 03:18:47;;;;;;;7.18;5.30;;;;;;;-1.28;100.00;103675.03;10105291;28;20133;-68
2023/02/05 03:23:44;;;;;;;8.18;5.97;;;;;;;-1.37;100.00;103667.97;10093450;28;20074;-68
2023/02/05 03:28:40;;;;;;;8.57;5.40;;;;;;;-1.43;100.00;103665.97;10108795;28;20049;-68
2023/02/05 03:33:47;;;;;;;7.13;5.70;;;;;;;-1.45;100.00;103651.88;10104752;28;20146;-68
2023/02/05 03:39:00;;;;;;;9.40;7.10;;;;;;;-1.41;100.00;103637.13;10105613;28;20046;-69
2023/02/05 03:44:12;;;;;;;6.30;5.70;;;;;;;-1.36;100.00;103624.03;10105011;28;20043;-66
2023/02/05 03:49:34;;;;;;;9.70;6.68;;;;;;;-1.43;100.00;103612.28;10103580;28;20047;-67
2023/02/05 03:54:50;;;;;;;6.50;5.90;;;;;;;-1.50;100.00;103606.75;10110352;28;20133;-67
2023/02/05 03:59:48;;;;;;;7.65;6.28;;;;;;;-1.53;100.00;103605.22;10105054;28;20523;-67
2023/02/05 04:04:45;;;;;;;6.80;6.05;;;;;;;-1.57;100.00;103592.31;10099368;28;20056;-66
2023/02/05 04:09:41;;;;;;;6.82;6.22;;;;;;;-1.60;100.00;103609.59;10106309;28;20047;-67
2023/02/05 04:14:38;;;;;;;7.35;6.15;;;;;;;-1.59;100.00;103613.94;10106124;28;20053;-66
2023/02/05 04:19:34;;;;;;;9.40;5.65;;;;;;;-1.49;100.00;103609.22;10107581;28;20540;-66
2023/02/05 04:24:30;;;;;;;8.15;5.90;;;;;;;-1.37;100.00;103611.59;10097046;28;20051;-66
2023/02/05 04:29:27;;;;;;;7.95;5.40;;;;;;;-1.25;100.00;103599.53;10103276;28;20067;-66
2023/02/05 04:34:23;;;;;;;12.45;5.40;;;;;;;-1.21;100.00;103590.13;10101616;28;20042;-66
2023/02/05 04:39:20;;;;;;;5.88;5.25;;;;;;;-1.22;100.00;103566.97;10097118;28;20142;-66
2023/02/05 04:44:16;;;;;;;5.43;4.90;;;;;;;-1.14;100.00;103563.44;10102841;28;20509;-67
2023/02/05 04:49:13;;;;;;;7.85;5.40;;;;;;;-1.10;100.00;103557.56;10102348;28;20082;-66
2023/02/05 04:54:09;;;;;;;10.63;5.95;;;;;;;-1.11;100.00;103537.09;10111636;28;20141;-68
2023/02/05 04:59:05;;;;;;;5.93;5.32;;;;;;;-1.06;100.00;103544.66;10111179;28;20509;-68
2023/02/05 05:04:02;;;;;;;6.13;4.90;;;;;;;-1.10;100.00;103544.13;10113398;28;20047;-68
2023/02/05 05:08:58;;;;;;;5.95;5.35;;;;;;;-1.12;100.00;103534.56;10111863;28;20053;-68
2023/02/05 05:13:55;;;;;;;6.82;5.40;;;;;;;-1.16;100.00;103547.50;10112895;28;20057;-66
2023/02/05 05:18:51;;;;;;;8.18;5.10;;;;;;;-1.17;100.00;103548.50;10108085;28;20043;-66
2023/02/05 05:23:47;;;;;;;5.68;5.00;;;;;;;-1.15;100.00;103542.97;10110356;28;20050;-66
2023/02/05 05:28:44;;;;;;;6.60;5.45;;;;;;;-1.20;100.00;103524.69;10106925;28;20129;-67
2023/02/05 05:33:41;;;;;;;6.00;5.22;;;;;;;-1.20;100.00;103511.28;10113987;28;20089;-67
2023/02/05 05:38:38;;;;;;;7.60;5.05;;;;;;;-1.21;100.00;103520.31;10112854;28;20142;-68
2023/02/05 05:43:46;;;;;;;6.18;5.57;;;;;;;-1.13;100.00;103512.25;10106605;28;20105;-68
2023/02/05 05:48:43;;;;;;;6.00;5.50;;;;;;;-1.15;100.00;103519.66;10110343;28;20055;-68
2023/02/05 05:53:39;;;;;;;5.93;5.30;;;;;;;-1.11;100.00;103509.41;10106741;28;20143;-68
2023/02/05 05:58:36;;;;;;;6.25;5.63;;;;;;;-0.97;100.00;103494.44;10104157;28;20138;-68
2023/02/05 06:03:32;;;;;;;9.27;5.80;;;;;;;-1.02;100.00;103486.03;10111161;28;20057;-68
2023/02/05 06:08:30;;;;;;;7.63;5.88;;;;;;;-0.84;100.00;103483.97;10108705;28;20057;-67
2023/02/05 06:13:26;;;;;;;6.03;5.43;;;;;;;-0.87;100.00;103478.94;10112298;28;20147;-68
2023/02/05 06:18:22;;;;;;;6.78;5.78;;;;;;;-0.91;100.00;103462.34;10108457;28;20051;-67
2023/02/05 06:23:19;;;;;;;5.90;5.30;;;;;;;-1.00;100.00;103449.09;10108149;28;20066;-67
2023/02/05 06:28:15;;;;;;;6.20;5.60;;;;;;;-1.03;100.00;103444.09;10104392;28;20141;-67
2023/02/05 06:33:12;;;;;;;6.20;5.60;;;;;;;-1.07;100.00;103463.25;10108074;28;20043;-67
2023/02/05 06:38:08;;;;;;;6.15;5.53;;;;;;;-1.14;100.00;103462.25;10104779;28;20077;-66
2023/02/05 06:43:05;;;;;;;6.10;5.47;;;;;;;-1.08;100.00;103474.97;10106203;28;20098;-67
2023/02/05 06:48:01;;;;;;;6.07;5.47;;;;;;;-1.01;100.00;103479.69;10106217;28;20062;-67
2023/02/05 06:52:58;;;;;;;7.25;6.30;;;;;;;-1.02;100.00;103492.28;10108641;28;20466;-68
2023/02/05 06:57:54;;;;;;;6.47;5.88;;;;;;;-1.02;100.00;103496.78;10107474;28;20039;-68
2023/02/05 07:02:51;;;;;;;6.68;5.97;;;;;;;-0.99;100.00;103491.09;10106564;28;20272;-68
2023/02/05 07:07:48;;;;;;;6.57;5.90;;;;;;;-0.97;100.00;103483.69;10097284;28;20074;-68
2023/02/05 07:12:45;;;;;;;7.53;6.80;;;;;;;-1.07;100.00;103487.41;10096302;28;20126;-68
2023/02/05 07:17:41;;;;;;;6.90;6.20;;;;;;;-1.06;100.00;103483.72;10105557;28;20047;-66
2023/02/05 07:22:38;;;;;;;7.93;6.53;;;;;;;-1.10;100.00;103479.69;10105867;28;20069;-67
2023/02/05 07:27:34;;;;;;;6.80;6.20;;;;;;;-1.00;100.00;103473.28;10109071;28;20563;-67
2023/02/05 07:32:31;;;;;;;10.57;6.60;;;;;;;-1.04;100.00;103471.94;10104962;28;20181;-68
2023/02/05 07:37:27;;;;;;;7.43;6.40;;;;;;;-0.95;100.00;103471.78;10083324;28;20051;-68
2023/02/05 07:42:24;;;;;;;8.77;6.68;;;;;;;-0.95;100.00;103487.03;10089407;28;21953;-68
2023/02/05 07:47:20;;;;;;;10.07;6.45;;;;;;;-0.95;100.00;103503.13;10108559;28;20129;-67
2023/02/05 07:52:16;;;;;;;8.50;6.85;;;;;;;-0.86;100.00;103481.47;10108555;28;20054;-67
2023/02/05 07:57:13;;;;;;;8.98;6.30;;;;;;;-0.74;100.00;103495.38;10105339;28;20049;-67
2023/02/05 08:02:10;;;;;;;8.75;6.55;;;;;;;-0.75;100.00;103488.28;10106631;28;20089;-67
2023/02/05 08:07:06;;;;;;;9.93;6.60;;;;;;;-0.81;100.00;103489.00;10104731;28;20158;-66
2023/02/05 08:12:04;;;;;;;11.48;6.22;;;;;;;-0.77;100.00;103484.94;10106266;28;20134;-66
2023/02/05 08:17:04;;;;;;;10.88;6.95;;;;;;;-0.73;100.00;103478.22;10106896;28;20108;-67
2023/02/05 08:22:01;;;;;;;10.43;7.10;;;;;;;-0.64;100.00;103469.09;10100444;28;20299;-66
2023/02/05 08:26:57;;;;;;;10.73;6.93;;;;;;;-0.56;100.00;103475.44;10110185;28;20053;-66
2023/02/05 08:31:54;;;;;;;9.50;7.20;;;;;;;-0.46;100.00;103481.47;10107931;28;20145;-66
2023/02/05 08:36:51;;;;;;;7.35;6.55;;;;;;;-0.31;100.00;103485.06;10102227;28;20397;-66
2023/02/05 08:41:47;;;;;;;7.40;6.70;;;;;;;-0.16;100.00;103495.06;10108201;28;20125;-66
2023/02/05 08:46:44;;;;;;;8.77;6.70;;;;;;;0.00;100.00;103497.66;10104434;28;20483;-69
2023/02/05 08:51:46;;;;;;;10.23;6.90;;;;;;;0.05;100.00;103494.41;10108357;28;20047;-71
2023/02/05 08:56:44;;;;;;;8.85;7.47;;;;;;;0.19;100.00;103499.03;10111711;28;20055;-69
2023/02/05 09:01:41;;;;;;;8.10;6.80;;;;;;;0.17;100.00;103504.59;10109457;28;20121;-68
2023/02/05 09:06:38;;;;;;;8.82;7.00;;;;;;;0.30;100.00;103511.22;10105260;28;20429;-69
2023/02/05 09:11:35;;;;;;;7.85;6.60;;;;;;;0.42;100.00;103512.47;10101583;28;20055;-70
2023/02/05 09:16:32;;;;;;;9.68;6.50;;;;;;;0.36;100.00;103507.81;10105564;28;20054;-69
2023/02/05 09:21:29;;;;;;;7.43;6.80;;;;;;;0.47;100.00;103515.44;10110534;28;20062;-69
2023/02/05 09:26:25;;;;;;;9.95;7.30;;;;;;;0.51;100.00;103519.47;10101192;28;20524;-69
2023/02/05 09:31:22;;;;;;;7.70;6.70;;;;;;;0.43;100.00;103506.06;10103462;28;20051;-69
2023/02/05 09:36:21;;;;;;;7.72;6.90;;;;;;;0.65;100.00;103506.19;10103835;28;20126;-69
2023/02/05 09:41:25;;;;;;;7.72;6.70;;;;;;;0.78;100.00;103509.09;10102192;28;20038;-70
2023/02/05 09:46:35;;;;;;;9.60;6.93;;;;;;;0.88;100.00;103501.56;10103296;28;20137;-69
2023/02/05 09:51:42;;;;;;;7.00;6.30;;;;;;;0.96;100.00;103509.59;10097924;28;20051;-69
2023/02/05 09:56:39;;;;;;;7.40;6.68;;;;;;;0.85;100.00;103515.44;10080992;28;20042;-69
2023/02/05 10:01:46;;;;;;;7.05;6.20;;;;;;;0.85;100.00;103507.34;10094138;28;20070;-68
2023/02/05 10:07:09;;;;;;;7.07;6.38;;;;;;;0.90;100.00;103514.88;10066993;28;20058;-68
2023/02/05 10:12:36;;;;;;;9.98;6.50;;;;;;;1.01;100.00;103523.34;10055430;28;20130;-68
2023/02/05 10:17:35;;;;;;;8.43;6.15;;;;;;;1.15;100.00;103513.59;10044544;28;20162;-68
2023/02/05 10:23:02;;;;;;;6.78;5.93;;;;;;;1.19;100.00;103504.13;10036685;28;20158;-67
2023/02/05 10:28:10;;;;;;;7.63;6.72;;;;;;;1.38;100.00;103497.31;10047517;28;20832;-67
2023/02/05 10:33:17;;;;;;;9.55;6.50;;;;;;;1.50;100.00;103500.34;10044705;28;20056;-67
2023/02/05 10:38:38;;;;;;;6.30;5.70;;;;;;;1.39;100.00;103508.91;10045486;28;20043;-66
2023/02/05 10:43:47;;;;;;;8.20;6.38;;;;;;;1.39;100.00;103520.56;10062073;28;20047;-67
2023/02/05 10:48:47;;;;;;;8.13;5.45;;;;;;;1.48;100.00;103523.97;10061740;28;20094;-67
2023/02/05 10:53:43;;;;;;;7.07;5.85;;;;;;;1.68;100.00;103529.63;10061019;28;20410;-67
2023/02/05 10:58:42;;;;;;;9.05;6.60;;;;;;;1.83;100.00;103533.13;10059969;28;20054;-66
2023/02/05 11:03:46;;;;;;;8.00;6.28;;;;;;;1.82;100.00;103550.31;10095818;28;20069;-65
2023/02/05 11:08:43;;;;;;;7.22;5.90;;;;;;;1.66;100.00;103558.63;10099591;28;20058;-65
2023/02/05 11:13:49;;;;;;;7.65;5.55;;;;;;;1.72;100.00;103552.50;10095839;28;20089;-67
2023/02/05 11:18:56;;;;;;;8.30;5.47;;;;;;;1.69;100.00;103542.06;10085573;28;20051;-67
2023/02/05 11:23:55;;;;;;;8.05;5.55;;;;;;;1.69;100.00;103550.16;10094818;28;20137;-68
2023/02/05 11:28:52;;;;;;;8.18;6.50;;;;;;;1.92;100.00;103547.31;10105392;28;20101;-67
2023/02/05 11:33:48;;;;;;;9.38;6.13;;;;;;;2.06;100.00;103537.50;10102937;28;20075;-68
2023/02/05 11:39:04;;;;;;;7.82;6.20;;;;;;;1.88;100.00;103546.88;10087452;28;20070;-67
2023/02/05 11:44:02;;;;;;;7.05;6.10;;;;;;;2.00;100.00;103554.50;10102113;28;20579;-67
2023/02/05 11:49:00;;;;;;;9.25;6.40;;;;;;;2.11;100.00;103556.66;10097371;28;20511;-67
2023/02/05 11:54:01;;;;;;;8.25;5.95;;;;;;;2.23;100.00;103560.53;10101670;28;20086;-67
2023/02/05 11:59:03;;;;;;;8.85;6.05;;;;;;;1.99;100.00;103566.28;10110107;28;20074;-67
2023/02/05 12:04:15;;;;;;;7.30;5.93;;;;;;;2.23;100.00;103560.53;10103606;28;20054;-67
2023/02/05 12:09:18;;;;;;;6.90;6.20;;;;;;;2.56;100.00;103549.22;10100506;28;20045;-67
2023/02/05 12:14:40;;;;;;;9.90;6.40;;;;;;;2.56;100.00;103556.50;10099971;28;20070;-66
2023/02/05 12:19:58;;;;;;;8.40;6.55;;;;;;;2.44;100.00;103557.00;10062528;28;20043;-67
2023/02/05 12:25:13;;;;;;;10.40;6.03;;;;;;;2.54;100.00;103559.38;10045746;28;20780;-65
2023/02/05 12:30:26;;;;;;;6.20;5.55;;;;;;;2.51;100.00;103551.69;10100783;28;20049;-67
2023/02/05 12:35:53;;;;;;;6.72;5.60;;;;;;;2.46;100.00;103554.09;10089283;28;20055;-67
2023/02/05 12:41:32;;;;;;;7.55;6.10;;;;;;;2.49;100.00;103542.94;10100960;28;20521;-68
2023/02/05 12:46:39;;;;;;;7.63;5.93;;;;;;;2.51;100.00;103530.06;10091732;28;20457;-67
2023/02/05 12:52:11;;;;;;;10.02;6.82;;;;;;;2.74;100.00;103524.44;10098484;28;20501;-67
2023/02/05 12:57:17;;;;;;;10.35;6.65;;;;;;;2.94;100.00;103513.75;10090338;28;20069;-67
2023/02/05 13:02:17;;;;;;;9.05;6.43;;;;;;;2.98;100.00;103530.41;10103484;28;20047;-68
2023/02/05 13:07:29;;;;;;;8.30;6.13;;;;;;;2.96;100.00;103541.41;10105661;28;20568;-68
2023/02/05 13:12:31;;;;;;;7.60;6.50;;;;;;;3.04;100.00;103552.09;10103902;28;20098;-68
2023/02/05 13:17:32;;;;;;;7.40;6.18;;;;;;;2.90;100.00;103561.97;10108876;28;20496;-68
2023/02/05 13:33:13;;;;;;;9.95;6.80;;;;;;;2.96;100.00;103563.03;10109801;28;20508;-68
2023/02/05 13:38:20;;;;;;;7.05;6.32;;;;;;;2.99;100.00;103570.75;10105588;28;20042;-68
2023/02/05 13:43:35;;;;;;;6.55;5.20;;;;;;;3.10;100.00;103575.63;10103798;28;20139;-68
2023/02/05 13:49:08;;;;;;;6.97;5.80;;;;;;;2.76;100.00;103592.59;10101516;28;20865;-67
2023/02/05 13:54:42;;;;;;;7.68;6.50;;;;;;;2.87;100.00;103588.53;10108164;28;20567;-67
2023/02/05 13:59:50;;;;;;;7.10;6.38;;;;;;;2.93;100.00;103598.59;10104612;28;20046;-68
2023/02/05 14:04:52;;;;;;;9.07;7.05;;;;;;;3.18;100.00;103601.69;10102249;28;20047;-68
2023/02/05 14:09:55;;;;;;;;;;;;;;;3.25;100.00;103601.69;10108185;28;20043;-67
2023/02/05 14:15:16;;;;;;;8.93;5.97;;;;;;;2.87;100.00;103610.16;10049814;28;19926;-68
2023/02/05 14:20:24;;;;;;;9.43;6.43;;;;;;;2.71;100.00;103612.09;10079628;28;20175;-68
2023/02/05 14:26:02;;;;;;;8.95;6.70;;;;;;;2.87;100.00;103599.34;10088591;28;20081;-68
2023/02/05 14:31:02;;;;;;;7.85;6.70;;;;;;;2.67;100.00;103594.63;10096883;28;20502;-68
2023/02/05 14:36:21;;;;;;;7.70;6.55;;;;;;;2.91;100.00;103606.88;10087252;28;20561;-68
2023/02/05 14:41:19;;;;;;;9.60;6.70;;;;;;;2.86;100.00;103603.09;10087733;28;20075;-68
2023/02/05 14:46:35;;;;;;;13.65;6.68;;;;;;;2.80;100.00;103611.97;10091213;28;20046;-68
2023/02/05 14:51:40;;;;;;;10.80;7.03;;;;;;;2.64;100.00;103631.97;10093128;28;20050;-68
2023/02/05 14:56:42;;;;;;;9.40;6.57;;;;;;;2.59;100.00;103643.38;10100378;28;20053;-68
2023/02/05 15:01:42;;;;;;;8.80;6.60;;;;;;;2.56;100.00;103641.06;10108155;28;20743;-68
2023/02/05 15:06:41;;;;;;;8.32;6.32;;;;;;;2.68;100.00;103658.41;10109352;28;20133;-68
2023/02/05 15:12:13;;;;;;;9.90;7.68;;;;;;;2.53;100.00;103646.84;10097004;28;20051;-68
2023/02/05 15:17:09;;;;;;;8.63;6.93;;;;;;;2.29;100.00;103654.25;10094291;28;20081;-68
2023/02/05 15:22:23;;;;;;;8.90;8.00;;;;;;;2.29;100.00;103640.75;10095343;28;20050;-67
2023/02/05 15:27:44;;;;;;;9.65;7.75;;;;;;;2.26;100.00;103641.16;10104724;28;20053;-68
2023/02/05 15:33:10;;;;;;;11.88;7.72;;;;;;;2.24;100.00;103640.50;10096397;28;20097;-68
2023/02/05 15:38:41;;;;;;;9.43;7.32;;;;;;;2.48;100.00;103644.72;10101929;28;20062;-68
2023/02/05 15:43:38;;;;;;;9.40;6.60;;;;;;;2.50;100.00;103652.63;10100473;28;20050;-68
2023/02/05 15:48:38;;;;;;;10.98;7.53;;;;;;;2.45;100.00;103671.28;10099975;28;20515;-68
2023/02/05 15:53:47;;;;;;;9.30;7.30;;;;;;;2.48;100.00;103670.88;10106906;28;20397;-67
2023/02/05 15:58:49;;;;;;;13.25;8.27;;;;;;;2.40;100.00;103674.53;10098012;28;20513;-67
2023/02/05 16:03:46;;;;;;;11.18;8.45;;;;;;;2.30;100.00;103674.84;10103961;28;20133;-67
2023/02/05 16:08:48;;;;;;;12.05;8.82;;;;;;;2.39;100.00;103693.63;10102890;28;20142;-68
2023/02/05 16:13:44;;;;;;;11.13;8.80;;;;;;;2.44;100.00;103691.22;10101766;28;20605;-68
2023/02/05 16:18:54;;;;;;;11.30;8.77;;;;;;;2.47;100.00;103693.53;10105947;28;20046;-68
2023/02/05 16:23:58;;;;;;;12.25;9.40;;;;;;;2.44;100.00;103718.22;10101148;28;20401;-68
2023/02/05 16:28:56;;;;;;;15.68;8.43;;;;;;;2.29;100.00;103721.75;10106403;28;20050;-68
2023/02/05 16:33:58;;;;;;;10.07;8.63;;;;;;;2.34;100.00;103723.91;10096028;28;20116;-67
2023/02/05 16:39:00;;;;;;;21.40;12.40;;;;;;;2.43;100.00;103724.63;10099323;28;20043;-68
2023/02/05 16:44:00;;;;;;;14.80;10.75;;;;;;;2.38;100.00;103729.78;10098218;28;20449;-68
2023/02/05 16:48:59;;;;;;;19.55;12.50;;;;;;;2.23;100.00;103738.72;10103017;28;20058;-67
2023/02/05 16:53:56;;;;;;;17.95;12.68;;;;;;;2.20;100.00;103752.59;10097157;28;20043;-68
2023/02/05 16:58:56;;;;;;;14.05;11.85;;;;;;;2.04;100.00;103768.97;10106768;28;20051;-68
2023/02/05 17:03:53;;;;;;;27.10;15.18;;;;;;;1.95;100.00;103775.47;10099677;28;20059;-68
2023/02/05 17:08:54;;;;;;;23.55;16.00;;;;;;;2.09;100.00;103790.88;10109225;28;20043;-68
2023/02/05 17:13:50;;;;;;;18.15;13.77;;;;;;;2.16;100.00;103785.53;10108987;28;20058;-68
2023/02/05 17:18:55;;;;;;;19.17;14.70;;;;;;;2.07;100.00;103782.94;10107980;28;20662;-68
2023/02/05 17:23:53;;;;;;;21.77;14.93;;;;;;;2.02;100.00;103812.34;10105647;28;20485;-68
2023/02/05 17:28:52;;;;;;;27.80;18.60;;;;;;;2.09;100.00;103809.75;10104036;28;20050;-67
2023/02/05 17:33:50;;;;;;;27.98;18.15;;;;;;;2.02;100.00;103817.75;10109636;28;20039;-68
2023/02/05 17:38:47;;;;;;;24.48;16.67;;;;;;;1.91;100.00;103825.47;10107885;28;20054;-68
2023/02/05 17:43:44;;;;;;;24.50;17.33;;;;;;;2.03;100.00;103818.59;10110261;28;20143;-68
2023/02/05 17:48:41;;;;;;;29.02;18.40;;;;;;;2.03;100.00;103821.28;10107507;28;20157;-68
2023/02/05 17:53:37;;;;;;;29.55;19.80;;;;;;;1.87;100.00;103847.41;10109747;28;20045;-68
2023/02/05 17:58:34;;;;;;;39.90;21.40;;;;;;;1.85;100.00;103854.84;10088122;28;20679;-68
2023/02/05 18:03:30;;;;;;;34.20;19.83;;;;;;;1.73;100.00;103872.47;10097373;28;20479;-68
2023/02/05 18:08:28;;;;;;;28.00;20.38;;;;;;;1.76;100.00;103872.09;10096398;28;20045;-68
2023/02/05 18:13:24;;;;;;;37.80;25.40;;;;;;;1.78;100.00;103855.75;10100234;28;20062;-68
2023/02/05 18:18:21;;;;;;;31.55;22.73;;;;;;;1.66;100.00;103869.66;10098386;28;20066;-68
2023/02/05 18:23:17;;;;;;;33.60;21.00;;;;;;;1.42;100.00;103886.03;10092278;28;20042;-68
2023/02/05 18:28:24;;;;;;;44.15;23.42;;;;;;;1.76;100.00;103877.50;10102758;28;20053;-68
2023/02/05 18:33:21;;;;;;;36.72;25.02;;;;;;;1.85;100.00;103854.84;10096804;28;20133;-69
2023/02/05 18:38:19;;;;;;;35.70;25.65;;;;;;;1.73;100.00;103894.06;10100281;28;20523;-69
2023/02/05 18:43:17;;;;;;;38.97;25.50;;;;;;;1.79;100.00;103898.75;10098708;28;20046;-69
2023/02/05 18:48:13;;;;;;;38.17;25.55;;;;;;;1.82;100.00;103887.59;10093440;28;20074;-69
2023/02/05 18:53:09;;;;;;;33.42;23.33;;;;;;;1.72;100.00;103887.00;10101711;28;20139;-69
2023/02/05 18:58:06;;;;;;;35.53;24.92;;;;;;;1.76;100.00;103888.31;10100945;28;20039;-69
2023/02/05 19:03:02;;;;;;;33.22;24.80;;;;;;;1.61;100.00;103873.94;10092706;28;20371;-69
2023/02/05 19:07:59;;;;;;;33.67;24.67;;;;;;;1.56;100.00;103893.34;10095493;28;20537;-69
2023/02/05 19:12:55;;;;;;;30.17;24.90;;;;;;;1.55;100.00;103888.13;10103713;28;20042;-69
2023/02/05 19:17:52;;;;;;;35.67;25.90;;;;;;;1.57;100.00;103904.97;10066858;28;20074;-69
2023/02/05 19:22:51;;;;;;;35.75;27.38;;;;;;;1.42;100.00;103897.66;10056638;28;20118;-69
2023/02/05 19:27:48;;;;;;;37.33;27.80;;;;;;;1.38;100.00;103904.41;10057232;28;20047;-69
2023/02/05 19:32:44;;;;;;;32.58;26.50;;;;;;;1.36;100.00;103914.53;10055681;28;20058;-69
2023/02/05 19:37:41;;;;;;;29.23;24.95;;;;;;;1.45;100.00;103940.44;10054836;28;20047;-69
2023/02/05 19:42:38;;;;;;;32.67;26.52;;;;;;;1.38;100.00;103947.56;10061116;28;20071;-69
2023/02/05 19:47:34;;;;;;;34.13;27.73;;;;;;;1.33;100.00;103958.03;10053039;28;20051;-69
2023/02/05 19:52:31;;;;;;;40.63;29.73;;;;;;;1.26;100.00;103957.91;10059731;28;20580;-68
2023/02/05 19:57:27;;;;;;;34.50;26.23;;;;;;;1.16;100.00;103961.81;10070612;28;20059;-69
2023/02/05 20:02:25;;;;;;;37.92;27.98;;;;;;;1.08;100.00;103964.56;10097607;28;20145;-69
2023/02/05 20:07:23;;;;;;;34.65;26.30;;;;;;;1.17;100.00;103974.28;10068830;28;20422;-69
2023/02/05 20:12:19;;;;;;;32.13;26.17;;;;;;;1.23;100.00;103973.56;10059049;28;20039;-69
2023/02/05 20:17:16;;;;;;;39.03;26.35;;;;;;;1.15;100.00;103960.97;10058239;28;20494;-68
2023/02/05 20:22:13;;;;;;;38.28;28.15;;;;;;;1.20;100.00;103963.97;10062396;28;20418;-68
2023/02/05 20:27:09;;;;;;;41.17;26.67;;;;;;;1.20;100.00;103957.75;10060577;28;20146;-69
2023/02/05 20:32:06;;;;;;;40.92;27.50;;;;;;;1.23;100.00;103968.19;10065038;28;20079;-69
2023/02/05 20:37:05;;;;;;;40.28;27.98;;;;;;;1.30;100.00;103958.41;10066935;28;20055;-69
2023/02/05 20:42:02;;;;;;;36.60;27.60;;;;;;;1.25;100.00;103963.47;10067665;28;20086;-69
2023/02/05 20:46:59;;;;;;;36.55;27.50;;;;;;;1.37;100.00;103964.78;10057770;28;20106;-69
2023/02/05 20:51:55;;;;;;;34.58;26.92;;;;;;;1.45;100.00;103972.78;10063601;28;20130;-69
2023/02/05 20:56:57;;;;;;;49.72;31.27;;;;;;;1.50;100.00;103974.13;10049440;28;20141;-68
2023/02/05 21:01:54;;;;;;;37.25;28.73;;;;;;;1.45;100.00;103983.59;10054073;28;20134;-68
2023/02/05 21:06:52;;;;;;;35.45;28.45;;;;;;;1.43;100.00;103984.78;10062806;28;20078;-65
2023/02/05 21:11:49;;;;;;;36.00;29.80;;;;;;;1.49;100.00;103994.03;10063487;28;20047;-68
2023/02/05 21:16:46;;;;;;;39.85;30.35;;;;;;;1.36;100.00;104003.50;10059133;28;20078;-67
2023/02/05 21:21:43;;;;;;;32.33;28.63;;;;;;;1.16;100.00;103994.16;10061666;28;20047;-67
2023/02/05 21:26:42;;;;;;;39.90;29.88;;;;;;;0.99;100.00;104002.28;10056543;28;20078;-67
2023/02/05 21:31:45;;;;;;;42.17;31.25;;;;;;;1.03;100.00;103984.78;10063199;28;20043;-67
2023/02/05 21:36:42;;;;;;;44.63;31.85;;;;;;;0.90;100.00;103989.84;10058048;28;20137;-67
2023/02/05 21:41:38;;;;;;;39.30;32.60;;;;;;;0.82;100.00;104000.66;10064682;28;20043;-67
2023/02/05 21:46:35;;;;;;;37.22;30.90;;;;;;;0.64;100.00;103990.09;10066622;28;20433;-67
2023/02/05 21:51:33;;;;;;;39.20;32.88;;;;;;;0.50;100.00;103983.53;10062481;28;20119;-66
2023/02/05 21:56:34;;;;;;;36.05;32.22;;;;;;;0.48;100.00;104000.88;10065482;28;20134;-67
2023/02/05 22:01:32;;;;;;;35.45;31.45;;;;;;;0.46;100.00;104009.13;10065672;28;20415;-67
2023/02/05 22:06:31;;;;;;;42.00;31.92;;;;;;;0.44;100.00;104005.75;10079832;28;20539;-68
2023/02/05 22:11:28;;;;;;;37.08;32.28;;;;;;;0.36;100.00;104013.84;10101934;28;20050;-68
2023/02/05 22:16:30;;;;;;;40.42;33.08;;;;;;;0.30;100.00;104017.19;10093850;28;20059;-68
2023/02/05 22:21:33;;;;;;;36.58;29.00;;;;;;;0.39;100.00;104024.28;10063813;28;20051;-68
2023/02/05 22:26:35;;;;;;;37.53;27.92;;;;;;;0.27;100.00;104036.38;10063540;28;20448;-68
2023/02/05 22:31:32;;;;;;;39.70;29.73;;;;;;;0.26;100.00;104040.09;10055314;28;20039;-68
2023/02/05 22:36:31;;;;;;;42.42;30.20;;;;;;;0.17;100.00;104021.25;10061675;28;20055;-68
2023/02/05 22:41:31;;;;;;;37.17;30.02;;;;;;;0.13;100.00;104024.44;10060115;28;20138;-66
2023/02/05 22:46:30;;;;;;;39.03;31.48;;;;;;;0.16;100.00;104011.50;10063958;28;20043;-66
2023/02/05 22:51:32;;;;;;;36.38;29.10;;;;;;;0.09;100.00;104023.91;10075565;28;20122;-66
2023/02/05 22:56:29;;;;;;;34.60;29.67;;;;;;;0.07;100.00;104034.03;10099789;28;20047;-68
2023/02/05 23:01:28;;;;;;;41.88;31.38;;;;;;;-0.07;100.00;104031.97;10104619;28;20058;-68